Providence, Rhode Island
Traffic Map
Current Weather Conditions
Providence, Rhode Island
Few Clouds
Few Clouds
54°
Feels Like: 54°
Wind Chill: 54° Ceiling: Unl
Heat Index: 54° Visibility: 10mi
Dew Point: 31° Wind: 12mph
Humidity: 41% Direction: 310° (NW)
Pressure: 30.21in Gusts: 22mph
Raw Report DataKPVD 191351Z 31010G19KT 10SM FEW250 12/M01 A3021 RMK AO2 SLP229 T01221006
Traffic Incident Summary
Active as of:
Severity:
Category:
InformationThere was an issue retrieving the traffic information for this location. Please try a different location or try again shortly.
Advertisements
At Last! Intellicast now available for iPhone and Android